Time;durP1;ratioP1;P1;durP2;ratioP2;P2;SDS_P1;SDS_P2;PMS_P1;PMS_P2;Temp;Humidity;BMP_temperature;BMP_pressure;BME280_temperature;BME280_humidity;BME280_pressure;Samples;Min_cycle;Max_cycle;Signal;HPM_P1;HPM_P2
2021/08/07 00:00:46;;;;;;;1.20;1.10;;;14.90;99.90;;;;;;4987383;28;20212;-74
2021/08/07 00:03:11;;;;;;;1.35;1.05;;;15.00;99.90;;;;;;4969526;28;20176;-75
2021/08/07 00:05:37;;;;;;;2.33;1.10;;;14.90;99.90;;;;;;4986752;28;20743;-76
2021/08/07 00:08:03;;;;;;;1.10;0.90;;;14.90;99.90;;;;;;4986846;28;20714;-75
2021/08/07 00:10:29;;;;;;;2.30;1.23;;;14.90;99.90;;;;;;4987683;28;20239;-73
2021/08/07 00:12:55;;;;;;;2.15;1.02;;;14.80;99.90;;;;;;4986496;28;20667;-73
2021/08/07 00:15:21;;;;;;;0.98;0.93;;;14.80;99.90;;;;;;4968867;28;20230;-74
2021/08/07 00:17:46;;;;;;;0.80;0.80;;;14.70;99.90;;;;;;4975476;28;20188;-74
2021/08/07 00:20:12;;;;;;;1.10;1.00;;;14.70;99.90;;;;;;4986981;28;20722;-75
2021/08/07 00:22:38;;;;;;;3.00;0.90;;;14.70;99.90;;;;;;4975187;28;20207;-75
2021/08/07 00:25:04;;;;;;;3.92;1.45;;;14.70;99.90;;;;;;4986206;28;20188;-74
2021/08/07 00:27:30;;;;;;;1.75;0.90;;;14.70;99.90;;;;;;4974826;28;20220;-76
2021/08/07 00:29:56;;;;;;;3.53;1.30;;;14.60;99.90;;;;;;4978043;28;20180;-74
2021/08/07 00:32:22;;;;;;;0.80;0.73;;;14.60;99.90;;;;;;4987007;28;20206;-75
2021/08/07 00:34:47;;;;;;;3.97;1.10;;;14.70;99.90;;;;;;4986066;28;20599;-75
2021/08/07 00:37:13;;;;;;;0.80;0.80;;;14.60;99.90;;;;;;4986775;28;20279;-75
2021/08/07 00:39:39;;;;;;;2.13;1.35;;;14.60;99.90;;;;;;4986481;28;20193;-75
2021/08/07 00:42:04;;;;;;;3.00;0.88;;;14.60;99.90;;;;;;4986887;28;20181;-75
2021/08/07 00:44:30;;;;;;;2.42;1.40;;;14.50;99.90;;;;;;4979715;28;20180;-75
2021/08/07 00:46:56;;;;;;;1.70;1.10;;;14.50;99.90;;;;;;4986986;28;20457;-73
2021/08/07 00:49:22;;;;;;;3.00;1.67;;;14.40;99.90;;;;;;4985860;28;20298;-75
2021/08/07 00:51:48;;;;;;;2.15;0.75;;;14.50;99.90;;;;;;4986090;28;20192;-75
2021/08/07 00:54:14;;;;;;;2.05;1.10;;;14.40;99.90;;;;;;4985672;28;20617;-75
2021/08/07 00:56:40;;;;;;;1.17;1.08;;;14.60;99.90;;;;;;4986586;28;20288;-74
2021/08/07 00:59:06;;;;;;;0.80;0.80;;;14.40;99.90;;;;;;4986476;28;20579;-75
2021/08/07 01:01:41;;;;;;;2.60;0.82;;;14.50;99.90;;;;;;4969100;28;20238;-76
2021/08/07 01:04:13;;;;;;;1.10;1.00;;;14.40;99.90;;;;;;4986415;28;20195;-74
2021/08/07 01:06:57;;;;;;;0.80;0.80;;;14.40;99.90;;;;;;4986143;28;20707;-75
2021/08/07 01:09:56;;;;;;;2.50;1.20;;;14.40;99.90;;;;;;4985757;28;20302;-75
2021/08/07 01:12:51;;;;;;;1.70;1.05;;;14.40;99.90;;;;;;4986240;28;20632;-74
2021/08/07 01:15:22;;;;;;;2.10;0.77;;;14.40;99.90;;;;;;4977184;28;20196;-76
2021/08/07 01:17:48;;;;;;;1.45;0.85;;;14.50;99.90;;;;;;4977210;28;20565;-75
2021/08/07 01:20:18;;;;;;;1.73;1.00;;;14.30;99.90;;;;;;4986089;28;20188;-75
2021/08/07 01:23:17;;;;;;;4.72;1.40;;;14.30;99.90;;;;;;4985866;28;20184;-75
2021/08/07 01:25:55;;;;;;;1.23;0.93;;;14.20;99.90;;;;;;4985402;28;20318;-74
2021/08/07 01:28:23;;;;;;;1.08;0.93;;;14.10;99.90;;;;;;4985987;28;20215;-76
2021/08/07 01:30:49;;;;;;;1.50;0.90;;;14.10;99.90;;;;;;4985826;28;20184;-74
2021/08/07 01:33:16;;;;;;;1.92;1.08;;;14.10;99.90;;;;;;4985932;28;20727;-74
2021/08/07 01:35:42;;;;;;;1.85;0.95;;;14.00;99.90;;;;;;4973000;28;20672;-75
2021/08/07 01:38:09;;;;;;;1.83;1.52;;;14.00;99.90;;;;;;4985713;28;20188;-73
2021/08/07 01:40:35;;;;;;;1.92;1.35;;;13.90;99.90;;;;;;4987787;28;20195;-74
2021/08/07 01:43:01;;;;;;;1.00;0.90;;;13.90;99.90;;;;;;4984876;28;20192;-74
2021/08/07 01:45:26;;;;;;;1.23;1.13;;;13.90;99.90;;;;;;4984795;28;20271;-76
2021/08/07 01:47:56;;;;;;;1.10;1.00;;;13.90;99.90;;;;;;4972194;28;20196;-74
2021/08/07 01:50:30;;;;;;;1.38;1.27;;;14.00;99.90;;;;;;4985287;28;20235;-73
2021/08/07 01:53:01;;;;;;;2.20;1.48;;;14.00;99.90;;;;;;4984737;28;20346;-74
2021/08/07 01:55:37;;;;;;;1.20;1.00;;;14.10;99.90;;;;;;4984658;28;20219;-73
2021/08/07 01:58:25;;;;;;;1.23;1.13;;;14.10;99.90;;;;;;4984929;28;20812;-74
2021/08/07 02:00:52;;;;;;;1.30;1.20;;;14.00;99.90;;;;;;4984712;28;20203;-74
2021/08/07 02:03:19;;;;;;;2.70;1.25;;;14.00;99.90;;;;;;4975065;28;20238;-75
2021/08/07 02:05:45;;;;;;;1.02;0.90;;;13.90;99.90;;;;;;4984770;28;20275;-75
2021/08/07 02:08:13;;;;;;;2.53;1.52;;;13.80;99.90;;;;;;4984789;28;20204;-74
2021/08/07 02:10:45;;;;;;;1.85;1.13;;;13.80;99.90;;;;;;4985471;28;20180;-76
2021/08/07 02:13:13;;;;;;;4.07;1.20;;;13.90;99.90;;;;;;4984935;28;20172;-76
2021/08/07 02:15:41;;;;;;;1.35;1.13;;;13.90;99.90;;;;;;4975419;28;20193;-74
2021/08/07 02:18:07;;;;;;;1.30;1.20;;;13.80;99.90;;;;;;4984727;28;20246;-75
2021/08/07 02:20:33;;;;;;;0.90;0.90;;;13.80;99.90;;;;;;4984986;28;20566;-74
2021/08/07 02:22:58;;;;;;;2.42;1.23;;;13.90;99.90;;;;;;4984452;28;20184;-75
2021/08/07 02:25:24;;;;;;;1.50;1.25;;;13.90;99.90;;;;;;4984163;28;20232;-75
2021/08/07 02:27:51;;;;;;;1.77;0.90;;;13.90;99.90;;;;;;4984241;28;20219;-75
2021/08/07 02:30:17;;;;;;;0.93;0.90;;;13.90;99.90;;;;;;4975915;28;20219;-74
2021/08/07 02:32:44;;;;;;;0.85;0.80;;;13.90;99.90;;;;;;4974086;28;20196;-76
2021/08/07 02:35:11;;;;;;;1.15;1.05;;;13.80;99.90;;;;;;4974191;28;20185;-74
2021/08/07 02:37:37;;;;;;;0.98;0.98;;;13.80;99.90;;;;;;4984658;28;20184;-75
2021/08/07 02:40:05;;;;;;;1.08;0.90;;;13.90;99.90;;;;;;4985089;28;20180;-75
2021/08/07 02:42:32;;;;;;;1.20;1.00;;;13.80;99.90;;;;;;4984794;28;20184;-75
2021/08/07 02:44:57;;;;;;;0.88;0.88;;;13.80;99.90;;;;;;4983490;28;20195;-75
2021/08/07 02:47:25;;;;;;;2.15;1.20;;;13.80;99.90;;;;;;4984447;28;20691;-74
2021/08/07 02:49:52;;;;;;;1.25;0.98;;;13.70;99.90;;;;;;4972913;28;20185;-75
2021/08/07 02:52:18;;;;;;;1.05;0.85;;;13.70;99.90;;;;;;4985205;28;20180;-75
2021/08/07 02:54:45;;;;;;;3.88;1.10;;;13.80;99.90;;;;;;4983842;28;20188;-74
2021/08/07 02:57:11;;;;;;;1.13;0.90;;;13.70;99.90;;;;;;4973781;28;20242;-75
2021/08/07 02:59:37;;;;;;;1.65;0.90;;;13.60;99.90;;;;;;4966770;28;20220;-74
2021/08/07 03:02:03;;;;;;;0.73;0.73;;;13.70;99.90;;;;;;4984683;28;20247;-73
2021/08/07 03:04:28;;;;;;;1.05;0.95;;;13.60;99.90;;;;;;4983111;28;20192;-73
2021/08/07 03:06:54;;;;;;;1.10;0.90;;;13.60;99.90;;;;;;4984893;28;20192;-74
2021/08/07 03:09:19;;;;;;;4.20;0.80;;;13.60;99.90;;;;;;4966508;28;20208;-75
2021/08/07 03:11:45;;;;;;;1.42;1.08;;;13.60;99.90;;;;;;4972764;28;20184;-75
2021/08/07 03:14:11;;;;;;;2.45;1.35;;;13.70;99.90;;;;;;4986033;28;20777;-74
2021/08/07 03:16:37;;;;;;;1.45;1.25;;;13.70;99.90;;;;;;4988469;28;20687;-74
2021/08/07 03:19:02;;;;;;;3.45;1.33;;;13.60;99.90;;;;;;4988109;28;20781;-76
2021/08/07 03:21:29;;;;;;;3.17;0.80;;;13.50;99.90;;;;;;4979361;28;20192;-74
2021/08/07 03:23:55;;;;;;;0.80;0.80;;;13.40;99.90;;;;;;4987104;28;20292;-74
2021/08/07 03:26:20;;;;;;;0.90;0.88;;;13.30;99.90;;;;;;4978744;28;20227;-75
2021/08/07 03:28:46;;;;;;;1.02;0.93;;;13.40;99.90;;;;;;4976631;28;20211;-75
2021/08/07 03:31:12;;;;;;;2.42;1.08;;;13.50;99.90;;;;;;4986473;28;20180;-75
2021/08/07 03:33:37;;;;;;;1.27;1.13;;;13.50;99.90;;;;;;4986531;28;20195;-76
2021/08/07 03:36:03;;;;;;;0.80;0.80;;;13.50;99.90;;;;;;4986845;28;20216;-75
2021/08/07 03:38:29;;;;;;;0.77;0.77;;;13.40;99.90;;;;;;4986415;28;20274;-76
2021/08/07 03:40:55;;;;;;;2.53;1.30;;;13.40;99.90;;;;;;4986673;28;20184;-74
2021/08/07 03:43:21;;;;;;;1.00;0.90;;;13.30;99.90;;;;;;4986034;28;20443;-75
2021/08/07 03:45:46;;;;;;;1.63;1.17;;;13.40;99.90;;;;;;4985558;28;20212;-74
2021/08/07 03:48:12;;;;;;;2.17;1.13;;;13.40;99.90;;;;;;4985917;28;20208;-75
2021/08/07 03:50:38;;;;;;;0.88;0.88;;;13.50;99.90;;;;;;4986155;28;20189;-75
2021/08/07 03:53:03;;;;;;;4.10;1.27;;;13.50;99.90;;;;;;4986378;28;20706;-74
2021/08/07 03:55:29;;;;;;;0.70;0.70;;;13.60;99.90;;;;;;4986523;28;20189;-74
2021/08/07 03:57:58;;;;;;;0.98;0.82;;;13.70;99.90;;;;;;4970937;28;20211;-74
2021/08/07 04:00:27;;;;;;;2.45;0.80;;;13.80;99.90;;;;;;4986808;28;20206;-75
2021/08/07 04:02:52;;;;;;;1.38;0.80;;;13.80;99.90;;;;;;4987022;28;20215;-75
2021/08/07 04:05:18;;;;;;;3.67;1.00;;;13.90;99.90;;;;;;4986061;28;20235;-75
2021/08/07 04:07:44;;;;;;;0.60;0.60;;;14.00;99.90;;;;;;4986777;28;20250;-73
2021/08/07 04:10:11;;;;;;;0.75;0.68;;;13.90;99.90;;;;;;4986629;28;20180;-75
2021/08/07 04:12:37;;;;;;;0.50;0.50;;;13.90;99.90;;;;;;4986851;28;20254;-75
2021/08/07 04:15:04;;;;;;;0.80;0.80;;;13.90;99.90;;;;;;4972738;28;20188;-74
2021/08/07 04:17:30;;;;;;;0.90;0.80;;;14.00;99.90;;;;;;4986672;28;20757;-74
2021/08/07 04:19:56;;;;;;;1.83;0.75;;;14.00;99.90;;;;;;4986862;28;20183;-76
2021/08/07 04:22:26;;;;;;;1.00;0.77;;;14.20;99.90;;;;;;4986887;28;20192;-75
2021/08/07 04:24:52;;;;;;;1.20;1.08;;;14.20;99.90;;;;;;4984745;28;20314;-75
2021/08/07 04:27:20;;;;;;;1.13;1.02;;;14.50;99.90;;;;;;4986287;28;20290;-75
2021/08/07 04:29:47;;;;;;;1.45;0.93;;;14.50;99.90;;;;;;4986046;28;20269;-74
2021/08/07 04:32:12;;;;;;;1.48;1.00;;;14.60;99.90;;;;;;4986877;28;20173;-74
2021/08/07 04:34:38;;;;;;;0.77;0.60;;;14.60;99.90;;;;;;4985241;28;20187;-74
2021/08/07 04:37:04;;;;;;;0.88;0.77;;;14.60;99.90;;;;;;4986159;28;20264;-75
2021/08/07 04:39:29;;;;;;;0.85;0.70;;;14.70;99.90;;;;;;4985958;28;20283;-75
2021/08/07 04:41:55;;;;;;;0.70;0.70;;;14.70;99.90;;;;;;4986574;28;20230;-75
2021/08/07 04:44:20;;;;;;;1.58;0.60;;;14.70;99.90;;;;;;4985107;28;20210;-75
2021/08/07 04:46:46;;;;;;;0.60;0.60;;;14.70;99.90;;;;;;4986287;28;20637;-75
2021/08/07 04:49:11;;;;;;;0.50;0.50;;;14.70;99.90;;;;;;4985632;28;20207;-74
2021/08/07 04:51:37;;;;;;;1.02;0.68;;;14.80;99.90;;;;;;4972141;28;20874;-74
2021/08/07 04:54:04;;;;;;;0.60;0.60;;;14.90;99.90;;;;;;4984871;28;20184;-75
2021/08/07 04:56:30;;;;;;;0.85;0.63;;;15.00;99.90;;;;;;4982422;28;20204;-76
2021/08/07 04:58:55;;;;;;;0.70;0.68;;;15.00;99.90;;;;;;4985521;28;20257;-76
2021/08/07 05:01:21;;;;;;;0.88;0.70;;;15.10;99.90;;;;;;4970964;28;20199;-75
2021/08/07 05:03:46;;;;;;;0.98;0.50;;;15.30;99.90;;;;;;4984739;28;20636;-75
2021/08/07 05:06:12;;;;;;;1.20;0.98;;;15.60;99.90;;;;;;4984942;28;20335;-74
2021/08/07 05:08:38;;;;;;;0.95;0.80;;;16.40;99.90;;;;;;4985588;28;20963;-76
2021/08/07 05:11:04;;;;;;;0.52;0.50;;;17.50;99.90;;;;;;4985365;28;20234;-77
2021/08/07 05:13:30;;;;;;;0.43;0.43;;;18.50;99.90;;;;;;4985168;28;20181;-77
2021/08/07 05:15:55;;;;;;;0.50;0.50;;;19.40;99.90;;;;;;4984689;28;20215;-78
2021/08/07 05:18:21;;;;;;;0.73;0.57;;;20.20;99.90;;;;;;4973841;28;20185;-74
2021/08/07 05:20:46;;;;;;;0.63;0.60;;;20.90;99.90;;;;;;4986054;28;20699;-76
2021/08/07 05:23:12;;;;;;;0.40;0.30;;;21.60;99.90;;;;;;4985515;28;20209;-75
2021/08/07 05:25:59;;;;;;;0.43;0.43;;;22.10;99.90;;;;;;4974224;28;20280;-76
2021/08/07 05:28:41;;;;;;;0.60;0.45;;;22.50;99.90;;;;;;4975375;28;20259;-75
2021/08/07 05:31:14;;;;;;;0.25;0.25;;;22.70;99.90;;;;;;4985800;28;20176;-75
2021/08/07 05:33:41;;;;;;;0.43;0.43;;;22.10;99.90;;;;;;4985393;28;20202;-73
2021/08/07 05:36:16;;;;;;;0.40;0.40;;;21.70;99.90;;;;;;4977104;28;20274;-74
2021/08/07 05:38:43;;;;;;;0.60;0.40;;;21.80;99.90;;;;;;4973567;28;20193;-73
2021/08/07 05:41:08;;;;;;;0.40;0.35;;;22.10;99.90;;;;;;4985254;28;20643;-77
2021/08/07 05:43:34;;;;;;;0.50;0.50;;;22.40;99.90;;;;;;4985057;28;20190;-76
2021/08/07 05:46:18;;;;;;;0.50;0.50;;;22.20;99.90;;;;;;4975439;28;20231;-76
2021/08/07 05:48:43;;;;;;;0.82;0.73;;;22.00;99.90;;;;;;4984787;28;20207;-76
2021/08/07 05:51:09;;;;;;;1.25;0.70;;;21.70;99.90;;;;;;4976519;28;20184;-74
2021/08/07 05:53:35;;;;;;;1.08;0.80;;;21.60;99.90;;;;;;4985270;28;20191;-76
2021/08/07 05:56:00;;;;;;;0.38;0.38;;;21.20;99.90;;;;;;4973718;28;20212;-76
2021/08/07 05:58:26;;;;;;;0.55;0.55;;;20.90;99.90;;;;;;4985338;28;20184;-75
2021/08/07 06:00:52;;;;;;;0.30;0.30;;;21.40;99.90;;;;;;4984996;28;20687;-73
2021/08/07 06:03:18;;;;;;;0.47;0.43;;;22.10;99.90;;;;;;4977200;28;20226;-77
2021/08/07 06:05:43;;;;;;;0.40;0.40;;;22.70;99.90;;;;;;4983998;28;20207;-75
2021/08/07 06:08:10;;;;;;;0.43;0.43;;;23.30;99.90;;;;;;4985060;28;20291;-74
2021/08/07 06:10:36;;;;;;;0.57;0.55;;;23.60;99.90;;;;;;4984407;28;20277;-78
2021/08/07 06:13:02;;;;;;;0.63;0.60;;;24.00;99.90;;;;;;4971674;28;20237;-74
2021/08/07 06:15:28;;;;;;;0.40;0.40;;;24.30;99.90;;;;;;4984041;28;20263;-74
2021/08/07 06:17:56;;;;;;;0.50;0.50;;;24.50;99.90;;;;;;4984008;28;20635;-74
2021/08/07 06:20:23;;;;;;;0.32;0.30;;;24.50;99.90;;;;;;4983618;28;20682;-73
2021/08/07 06:22:48;;;;;;;0.50;0.50;;;24.40;99.90;;;;;;4983490;28;20183;-72
2021/08/07 06:25:14;;;;;;;0.50;0.50;;;24.60;99.90;;;;;;4983127;28;20180;-73
2021/08/07 06:27:40;;;;;;;0.43;0.43;;;24.90;99.90;;;;;;4984170;28;20763;-74
2021/08/07 06:30:06;;;;;;;1.02;0.45;;;25.00;99.90;;;;;;4983804;28;20192;-73
2021/08/07 06:32:32;;;;;;;0.52;0.40;;;25.00;99.90;;;;;;4982766;28;20575;-74
2021/08/07 06:34:58;;;;;;;0.50;0.50;;;24.80;99.90;;;;;;4983884;28;20215;-73
2021/08/07 06:37:23;;;;;;;0.63;0.40;;;24.90;99.90;;;;;;4985113;28;20676;-74
2021/08/07 06:39:49;;;;;;;0.73;0.60;;;24.90;99.90;;;;;;4984662;28;20211;-75
2021/08/07 06:42:15;;;;;;;1.50;0.60;;;24.80;99.90;;;;;;4985413;28;20184;-75
2021/08/07 06:44:41;;;;;;;0.50;0.50;;;24.50;99.90;;;;;;4974690;28;20184;-75
2021/08/07 06:47:06;;;;;;;0.50;0.50;;;23.90;99.90;;;;;;4985062;28;20223;-75
2021/08/07 06:49:32;;;;;;;0.40;0.30;;;23.40;99.90;;;;;;4988146;28;20208;-75
2021/08/07 06:51:58;;;;;;;0.50;0.50;;;23.00;99.90;;;;;;4988831;28;20185;-75
2021/08/07 06:54:23;;;;;;;0.75;0.50;;;22.70;99.90;;;;;;4988044;28;20187;-75
2021/08/07 06:56:49;;;;;;;1.00;0.50;;;22.60;99.90;;;;;;4989190;28;20741;-75
2021/08/07 06:59:15;;;;;;;0.65;0.52;;;22.40;99.90;;;;;;4989224;28;20216;-74
2021/08/07 07:01:41;;;;;;;0.40;0.40;;;21.90;99.90;;;;;;4988570;28;20188;-74
2021/08/07 07:04:07;;;;;;;0.30;0.30;;;21.80;99.90;;;;;;4986985;28;20255;-73
2021/08/07 07:06:32;;;;;;;0.50;0.50;;;21.70;99.90;;;;;;4988699;28;20211;-74
2021/08/07 07:08:58;;;;;;;0.95;0.47;;;21.70;99.90;;;;;;4988148;28;20300;-74
2021/08/07 07:11:24;;;;;;;0.35;0.35;;;21.70;99.90;;;;;;4988303;28;20534;-74
2021/08/07 07:13:50;;;;;;;0.93;0.50;;;21.70;99.90;;;;;;4987397;28;20191;-74
2021/08/07 07:29:02;;;;;;;0.35;0.35;;;22.30;99.90;;;;;;5020936;23;20243;-79
2021/08/07 07:31:28;;;;;;;0.35;0.35;;;22.40;99.90;;;;;;4984917;28;21247;-81
2021/08/07 07:33:57;;;;;;;0.40;0.40;;;22.20;99.90;;;;;;4986275;28;20180;-75
2021/08/07 07:36:22;;;;;;;0.40;0.40;;;22.10;99.90;;;;;;4987046;28;20200;-77
2021/08/07 07:38:48;;;;;;;0.77;0.47;;;22.00;99.90;;;;;;4987318;28;20199;-75
2021/08/07 07:41:15;;;;;;;0.50;0.50;;;22.10;99.90;;;;;;4986047;28;20184;-79
2021/08/07 07:43:40;;;;;;;0.40;0.40;;;22.20;99.90;;;;;;4986559;28;20184;-75
2021/08/07 07:46:06;;;;;;;0.93;0.43;;;22.30;99.90;;;;;;4987240;28;20187;-78
2021/08/07 07:48:32;;;;;;;1.40;0.40;;;22.40;99.90;;;;;;4986479;28;20236;-78
2021/08/07 07:50:58;;;;;;;0.73;0.45;;;22.60;99.90;;;;;;4988191;28;20184;-79
2021/08/07 07:53:23;;;;;;;0.40;0.40;;;22.40;99.90;;;;;;4988083;28;20322;-77
2021/08/07 07:55:49;;;;;;;0.30;0.30;;;22.20;99.90;;;;;;4987526;28;20658;-78
2021/08/07 07:58:15;;;;;;;0.50;0.50;;;22.10;99.90;;;;;;4987700;28;20204;-78
2021/08/07 08:00:40;;;;;;;0.30;0.30;;;22.00;99.90;;;;;;4986626;28;21050;-77
2021/08/07 08:03:06;;;;;;;0.70;0.50;;;22.00;99.90;;;;;;4981310;28;20664;-77
2021/08/07 08:05:31;;;;;;;1.65;0.40;;;22.00;99.90;;;;;;4987299;28;20247;-78
2021/08/07 08:07:57;;;;;;;0.57;0.50;;;21.90;99.90;;;;;;4985952;28;20208;-79
2021/08/07 08:10:23;;;;;;;0.68;0.63;;;22.00;99.90;;;;;;4987053;28;20287;-77
2021/08/07 08:12:49;;;;;;;0.57;0.38;;;22.00;99.90;;;;;;4987446;28;20188;-78
2021/08/07 08:15:15;;;;;;;0.50;0.47;;;21.90;99.90;;;;;;4987302;28;20685;-77
2021/08/07 08:17:41;;;;;;;0.80;0.30;;;21.90;99.90;;;;;;4987933;28;20397;-79
2021/08/07 08:20:08;;;;;;;3.80;0.80;;;22.00;99.90;;;;;;4985779;28;20187;-78
2021/08/07 08:22:35;;;;;;;0.40;0.40;;;22.10;99.90;;;;;;4987476;28;20177;-77
2021/08/07 08:25:01;;;;;;;0.43;0.40;;;22.30;99.90;;;;;;4986951;28;20235;-78
2021/08/07 08:27:27;;;;;;;0.47;0.47;;;22.60;99.90;;;;;;4987278;28;20570;-77
2021/08/07 08:29:53;;;;;;;0.47;0.47;;;22.80;99.90;;;;;;4986710;28;20188;-78
2021/08/07 08:32:19;;;;;;;0.93;0.52;;;23.20;99.90;;;;;;4987046;28;20184;-78
2021/08/07 08:34:44;;;;;;;0.40;0.40;;;23.50;99.90;;;;;;4984738;28;20275;-78
2021/08/07 08:37:10;;;;;;;0.55;0.50;;;23.50;99.90;;;;;;4987116;28;20230;-77
2021/08/07 08:39:36;;;;;;;0.77;0.47;;;23.50;99.90;;;;;;4984616;28;20456;-77
2021/08/07 08:42:02;;;;;;;0.90;0.40;;;23.50;99.90;;;;;;4985845;28;20632;-78
2021/08/07 08:44:28;;;;;;;0.47;0.40;;;23.60;99.90;;;;;;4986799;28;20180;-78
2021/08/07 08:46:53;;;;;;;2.08;0.50;;;23.70;99.90;;;;;;4986680;28;20231;-78
2021/08/07 08:49:20;;;;;;;0.40;0.40;;;23.80;99.90;;;;;;4983403;28;20235;-77
2021/08/07 08:51:48;;;;;;;0.47;0.47;;;23.80;99.90;;;;;;4983869;28;21437;-77
2021/08/07 08:54:18;;;;;;;0.40;0.40;;;24.00;99.90;;;;;;4985842;28;20287;-77
2021/08/07 08:56:48;;;;;;;0.45;0.45;;;24.10;99.90;;;;;;4984150;28;20191;-77
2021/08/07 08:59:14;;;;;;;0.63;0.52;;;24.20;99.90;;;;;;4985255;28;20184;-78
2021/08/07 09:01:40;;;;;;;0.35;0.35;;;24.50;99.90;;;;;;4984629;28;20184;-77
2021/08/07 09:04:06;;;;;;;0.43;0.43;;;24.90;99.90;;;;;;4983728;28;20666;-78
2021/08/07 09:06:32;;;;;;;0.40;0.38;;;25.20;99.90;;;;;;4986393;28;20267;-78
2021/08/07 09:09:03;;;;;;;0.35;0.35;;;25.20;99.90;;;;;;4985537;28;20214;-77
2021/08/07 09:11:29;;;;;;;0.30;0.30;;;25.20;99.90;;;;;;4985513;28;20460;-77
2021/08/07 09:14:13;;;;;;;1.08;0.52;;;25.40;99.90;;;;;;4984297;28;20208;-78
2021/08/07 09:17:03;;;;;;;0.40;0.40;;;25.30;99.90;;;;;;4986264;28;20208;-77
2021/08/07 09:19:40;;;;;;;0.50;0.50;;;25.30;99.90;;;;;;4985674;28;20655;-77
2021/08/07 09:22:07;;;;;;;0.40;0.40;;;25.30;99.90;;;;;;4987854;28;20271;-78
2021/08/07 09:24:34;;;;;;;0.47;0.45;;;25.50;99.90;;;;;;4985363;28;20216;-77
2021/08/07 09:27:01;;;;;;;0.47;0.47;;;25.50;99.90;;;;;;4985309;28;21451;-77
2021/08/07 09:29:35;;;;;;;0.57;0.45;;;25.60;99.90;;;;;;4985584;28;20294;-77
2021/08/07 09:32:01;;;;;;;0.50;0.50;;;25.10;99.90;;;;;;4985511;28;20203;-77
2021/08/07 09:34:26;;;;;;;0.30;0.30;;;24.30;99.90;;;;;;4984112;28;20226;-77
2021/08/07 09:36:56;;;;;;;0.95;0.32;;;24.30;99.90;;;;;;4983819;28;20716;-76
2021/08/07 09:39:39;;;;;;;0.45;0.40;;;24.50;99.90;;;;;;4984012;28;20188;-77
2021/08/07 09:42:06;;;;;;;1.75;0.30;;;24.60;99.90;;;;;;4985701;28;20991;-77
2021/08/07 09:44:31;;;;;;;0.52;0.50;;;24.80;99.90;;;;;;4986581;28;20239;-78
2021/08/07 09:47:06;;;;;;;0.68;0.57;;;25.10;99.90;;;;;;4986885;28;20201;-79
2021/08/07 09:49:37;;;;;;;0.40;0.40;;;25.60;99.90;;;;;;4987734;28;20318;-78
2021/08/07 09:52:04;;;;;;;0.75;0.40;;;25.80;99.90;;;;;;4985302;28;20721;-79
2021/08/07 09:54:46;;;;;;;0.35;0.35;;;25.70;99.90;;;;;;4986765;28;20190;-78
2021/08/07 09:57:28;;;;;;;0.50;0.47;;;25.60;99.90;;;;;;4986452;28;20214;-79
2021/08/07 09:59:54;;;;;;;1.27;0.40;;;25.20;99.90;;;;;;4985982;28;20180;-79
2021/08/07 10:02:28;;;;;;;1.20;0.38;;;25.10;99.90;;;;;;4986160;28;20207;-79
2021/08/07 10:04:54;;;;;;;0.30;0.30;;;25.20;99.90;;;;;;4985755;28;20606;-79
2021/08/07 10:07:20;;;;;;;1.10;0.40;;;25.20;99.90;;;;;;4984981;28;20196;-79
2021/08/07 10:09:46;;;;;;;0.60;0.40;;;25.30;99.90;;;;;;4986549;28;20203;-79
2021/08/07 10:12:14;;;;;;;0.88;0.40;;;25.40;99.90;;;;;;4985035;28;20569;-77
2021/08/07 10:14:41;;;;;;;1.15;0.50;;;25.60;99.90;;;;;;4982472;28;20717;-78
2021/08/07 10:17:09;;;;;;;0.52;0.52;;;25.90;99.90;;;;;;4982578;28;20286;-78
2021/08/07 10:19:36;;;;;;;0.65;0.40;;;26.10;99.90;;;;;;4986565;28;20442;-79
2021/08/07 10:22:06;;;;;;;0.55;0.40;;;26.00;99.90;;;;;;4985669;28;20561;-78
2021/08/07 10:24:33;;;;;;;0.50;0.50;;;26.10;99.90;;;;;;4985602;28;20204;-79
2021/08/07 10:27:00;;;;;;;0.43;0.30;;;26.10;99.90;;;;;;4985609;28;20585;-79
2021/08/07 10:29:35;;;;;;;0.35;0.35;;;26.30;99.90;;;;;;4986037;28;20208;-77
2021/08/07 10:32:05;;;;;;;0.40;0.30;;;26.50;99.90;;;;;;4985517;28;20602;-79
2021/08/07 10:34:37;;;;;;;0.82;0.40;;;26.60;99.90;;;;;;4985609;28;20263;-79
2021/08/07 10:37:04;;;;;;;0.30;0.30;;;26.80;99.90;;;;;;4985874;28;20207;-79
2021/08/07 10:39:31;;;;;;;0.57;0.40;;;26.90;99.90;;;;;;4986057;28;20211;-79
2021/08/07 10:42:02;;;;;;;0.25;0.25;;;26.70;99.90;;;;;;4984260;28;20192;-78
2021/08/07 10:44:28;;;;;;;1.33;0.40;;;26.60;99.90;;;;;;4985823;28;20187;-78
2021/08/07 10:46:55;;;;;;;0.85;0.40;;;26.40;99.90;;;;;;4985213;28;20290;-78
2021/08/07 10:49:38;;;;;;;1.17;0.60;;;26.30;99.90;;;;;;4985434;28;20638;-79
2021/08/07 10:52:26;;;;;;;1.25;0.40;;;26.20;99.90;;;;;;4984273;28;20187;-79
2021/08/07 10:54:53;;;;;;;0.50;0.43;;;26.00;99.90;;;;;;4981535;28;20282;-79
2021/08/07 10:57:37;;;;;;;0.30;0.22;;;25.70;99.90;;;;;;4984322;28;20200;-78
2021/08/07 11:00:22;;;;;;;0.30;0.30;;;25.80;99.90;;;;;;4985425;28;20208;-78
2021/08/07 11:02:48;;;;;;;1.05;0.50;;;25.70;99.90;;;;;;4984255;28;20188;-78
2021/08/07 11:05:14;;;;;;;0.40;0.40;;;25.40;99.90;;;;;;4984643;28;20191;-78
2021/08/07 11:07:41;;;;;;;0.60;0.40;;;25.50;99.90;;;;;;4984096;28;20208;-79
2021/08/07 11:10:15;;;;;;;0.30;0.30;;;25.70;99.90;;;;;;4985425;28;20196;-78
2021/08/07 11:12:42;;;;;;;1.05;0.30;;;25.90;99.90;;;;;;4985511;28;20279;-79
2021/08/07 11:15:29;;;;;;;0.82;0.40;;;26.10;99.90;;;;;;4984840;28;20647;-79
2021/08/07 11:17:55;;;;;;;1.23;0.45;;;26.20;99.90;;;;;;4985435;28;20204;-79
2021/08/07 11:20:38;;;;;;;0.30;0.30;;;26.60;99.90;;;;;;4983580;28;20230;-78
2021/08/07 11:23:06;;;;;;;2.35;0.40;;;26.60;99.90;;;;;;4999451;28;20254;-79
2021/08/07 11:25:50;;;;;;;0.77;0.35;;;26.60;99.90;;;;;;4985002;28;20189;-78
2021/08/07 11:28:18;;;;;;;0.40;0.40;;;26.80;99.90;;;;;;4985501;28;20293;-79
2021/08/07 11:30:44;;;;;;;0.80;0.50;;;26.80;99.90;;;;;;4985013;28;20182;-77
2021/08/07 11:33:09;;;;;;;0.50;0.50;;;26.90;99.90;;;;;;4985365;28;20379;-79
2021/08/07 11:35:38;;;;;;;0.50;0.50;;;27.00;99.90;;;;;;4987495;28;20270;-79
2021/08/07 11:40:45;;;;;;;0.75;0.65;;;27.00;99.90;;;;;;4988012;28;20195;-79
2021/08/07 11:43:21;;;;;;;0.40;0.40;;;27.10;99.90;;;;;;4986775;28;20282;-81
2021/08/07 11:45:48;;;;;;;1.30;0.43;;;27.00;99.90;;;;;;4986907;28;20577;-77
2021/08/07 11:48:22;;;;;;;0.47;0.47;;;27.20;99.90;;;;;;4988244;28;20216;-78
2021/08/07 11:50:48;;;;;;;0.40;0.40;;;27.30;99.30;;;;;;4987683;28;20188;-78
2021/08/07 11:53:16;;;;;;;0.30;0.30;;;27.20;97.90;;;;;;4987878;28;21040;-78
2021/08/07 11:55:42;;;;;;;0.32;0.32;;;27.20;98.20;;;;;;4987337;28;20636;-78
2021/08/07 11:58:14;;;;;;;1.42;0.47;;;27.10;98.60;;;;;;4988197;28;20308;-79
2021/08/07 12:00:41;;;;;;;0.68;0.50;;;26.90;99.30;;;;;;4985847;28;20192;-78
2021/08/07 12:03:08;;;;;;;0.60;0.60;;;26.90;99.30;;;;;;4988216;28;20180;-78
2021/08/07 12:05:36;;;;;;;0.70;0.55;;;26.90;98.80;;;;;;4987399;28;20288;-78
2021/08/07 12:08:08;;;;;;;1.40;0.60;;;26.90;99.90;;;;;;4987453;28;20247;-79
2021/08/07 12:10:36;;;;;;;0.30;0.30;;;27.10;99.90;;;;;;4985794;28;20204;-77
2021/08/07 12:13:02;;;;;;;0.40;0.40;;;27.30;99.90;;;;;;4987581;28;20211;-79
2021/08/07 12:15:28;;;;;;;0.65;0.65;;;27.30;99.90;;;;;;4987294;28;20647;-77
2021/08/07 12:17:55;;;;;;;1.20;0.60;;;27.30;99.90;;;;;;4987427;28;20200;-79
2021/08/07 12:20:22;;;;;;;0.45;0.40;;;27.20;99.80;;;;;;4985957;28;20184;-78
2021/08/07 12:22:56;;;;;;;0.95;0.50;;;27.00;98.40;;;;;;4988261;28;20184;-79
2021/08/07 12:25:21;;;;;;;0.50;0.50;;;27.10;99.00;;;;;;4986841;28;20188;-76
2021/08/07 12:28:01;;;;;;;0.52;0.32;;;27.20;97.80;;;;;;4985955;28;20238;-76
2021/08/07 12:30:27;;;;;;;0.43;0.40;;;27.30;97.30;;;;;;4987696;28;20631;-75
2021/08/07 12:33:12;;;;;;;0.85;0.47;;;27.30;97.50;;;;;;4986080;28;20199;-76
2021/08/07 12:35:38;;;;;;;1.17;0.50;;;27.40;98.40;;;;;;4985565;28;20180;-75
2021/08/07 12:38:03;;;;;;;1.20;0.50;;;27.40;98.00;;;;;;4985116;28;20223;-75
2021/08/07 12:40:29;;;;;;;2.03;0.52;;;27.30;98.20;;;;;;4985263;28;20192;-76
2021/08/07 12:42:54;;;;;;;0.75;0.40;;;27.30;98.10;;;;;;4985318;28;20184;-76
2021/08/07 12:45:20;;;;;;;1.20;0.57;;;27.40;97.70;;;;;;4984129;28;20242;-75
2021/08/07 12:47:46;;;;;;;1.17;0.40;;;27.40;98.40;;;;;;4985086;28;20219;-75
2021/08/07 12:50:16;;;;;;;1.05;0.50;;;27.80;97.70;;;;;;4984968;28;20187;-76
2021/08/07 12:52:59;;;;;;;0.40;0.40;;;27.90;97.60;;;;;;4984789;28;20296;-76
2021/08/07 12:55:32;;;;;;;1.08;0.30;;;28.00;96.50;;;;;;4983757;28;20235;-76
2021/08/07 12:58:15;;;;;;;0.32;0.30;;;28.00;97.70;;;;;;4986719;28;20947;-77
2021/08/07 13:00:41;;;;;;;0.43;0.43;;;27.60;96.20;;;;;;4986766;28;20460;-77
2021/08/07 13:03:10;;;;;;;1.33;0.68;;;27.40;96.70;;;;;;4985467;28;20180;-80
2021/08/07 13:05:39;;;;;;;0.82;0.40;;;27.40;96.90;;;;;;4985555;28;20825;-78
2021/08/07 13:08:30;;;;;;;0.30;0.30;;;27.40;96.40;;;;;;4985403;28;20211;-77